Time,TemperatureF,DewpointF,PressureIn,WindDirection,WindDirectionDegrees,WindSpeedMPH,WindSpeedGustMPH,Humidity,HourlyPrecipIn,Conditions,Clouds,dailyrainin,SoftwareType,DateUTC
2013-05-22 00:00:00,56.7,52.8,29.97,NNE,23,0.0,0.0,87,0.00,,,0.78,WUHU216HW,2013-05-22 05:00:00,
2013-05-22 00:05:00,56.7,52.8,29.97,NNE,23,0.0,0.0,87,0.00,,,0.78,WUHU216HW,2013-05-22 05:05:00,
2013-05-22 00:30:00,56.3,52.8,29.98,NNE,23,0.2,0.2,88,0.00,,,0.00,WUHU216HW,2013-05-22 05:30:00,
2013-05-22 00:35:00,56.3,52.8,29.98,NNE,23,0.2,0.2,88,0.00,,,0.00,WUHU216HW,2013-05-22 05:35:00,
2013-05-22 01:00:00,55.8,52.3,29.96,North,0,0.4,0.4,88,0.00,,,0.00,WUHU216HW,2013-05-22 06:00:00,
2013-05-22 01:05:00,55.8,52.3,29.96,North,0,0.4,0.4,88,0.00,,,0.00,WUHU216HW,2013-05-22 06:05:00,
2013-05-22 01:10:00,55.8,52.3,29.96,North,0,0.4,0.4,88,0.00,,,0.00,WUHU216HW,2013-05-22 06:10:00,
2013-05-22 01:30:00,55.1,51.8,29.96,North,0,0.7,0.7,89,0.00,,,0.00,WUHU216HW,2013-05-22 06:30:00,
2013-05-22 01:35:00,55.1,51.8,29.96,North,0,0.7,0.7,89,0.00,,,0.00,WUHU216HW,2013-05-22 06:35:00,
2013-05-22 02:00:00,53.6,50.5,29.97,North,0,1.1,1.1,89,0.00,,,0.00,WUHU216HW,2013-05-22 07:00:00,
2013-05-22 02:05:00,53.6,50.5,29.97,North,0,1.1,1.1,89,0.00,,,0.00,WUHU216HW,2013-05-22 07:05:00,
2013-05-22 02:10:00,53.6,50.5,29.97,North,0,1.1,1.1,89,0.00,,,0.00,WUHU216HW,2013-05-22 07:10:00,
2013-05-22 02:30:00,52.7,49.6,29.97,NNE,23,0.7,0.7,89,0.00,,,0.00,WUHU216HW,2013-05-22 07:30:00,
2013-05-22 02:35:00,52.7,49.6,29.97,NNE,23,0.7,0.7,89,0.00,,,0.00,WUHU216HW,2013-05-22 07:35:00,
2013-05-22 03:00:00,52.2,49.1,29.98,NNE,23,0.7,0.7,89,0.00,,,0.00,WUHU216HW,2013-05-22 08:00:00,
2013-05-22 03:05:00,52.2,49.1,29.98,North,0,0.9,0.9,89,0.00,,,0.00,WUHU216HW,2013-05-22 08:05:00,
2013-05-22 03:10:00,52.2,49.1,29.98,North,0,0.9,0.9,89,0.00,,,0.00,WUHU216HW,2013-05-22 08:10:00,
2013-05-22 03:30:00,51.5,48.3,29.99,NNE,23,1.1,1.1,89,0.00,,,0.00,WUHU216HW,2013-05-22 08:30:00,
2013-05-22 03:35:00,51.5,48.3,29.99,NNE,23,1.1,1.1,89,0.00,,,0.00,WUHU216HW,2013-05-22 08:35:00,
2013-05-22 04:00:00,51.1,48.0,29.99,ENE,68,1.1,1.1,89,0.00,,,0.00,WUHU216HW,2013-05-22 09:00:00,
2013-05-22 04:05:00,51.1,48.0,29.99,ENE,68,1.1,1.1,89,0.00,,,0.00,WUHU216HW,2013-05-22 09:05:00,
2013-05-22 04:10:00,51.1,48.0,29.99,ENE,68,1.1,1.1,89,0.00,,,0.00,WUHU216HW,2013-05-22 09:10:00,
2013-05-22 04:30:00,50.8,48.2,29.99,ENE,68,2.0,2.0,91,0.00,,,0.00,WUHU216HW,2013-05-22 09:30:00,
2013-05-22 04:35:00,50.8,48.2,29.99,ENE,68,2.0,2.0,91,0.00,,,0.00,WUHU216HW,2013-05-22 09:35:00,
2013-05-22 05:00:00,50.2,47.3,29.99,NE,45,1.3,1.3,90,0.00,,,0.00,WUHU216HW,2013-05-22 10:00:00,
2013-05-22 05:05:00,50.2,47.3,29.99,ESE,113,1.8,1.8,90,0.00,,,0.00,WUHU216HW,2013-05-22 10:05:00,
2013-05-22 05:10:00,50.2,47.3,29.99,ESE,113,1.8,1.8,90,0.00,,,0.00,WUHU216HW,2013-05-22 10:10:00,
2013-05-22 05:30:00,50.0,47.2,29.99,NE,45,1.8,1.8,90,0.00,,,0.00,WUHU216HW,2013-05-22 10:30:00,
2013-05-22 05:35:00,50.0,47.2,29.99,NE,45,1.8,1.8,90,0.00,,,0.00,WUHU216HW,2013-05-22 10:35:00,
2013-05-22 06:00:00,49.3,46.5,29.98,NE,45,0.9,0.9,90,0.00,,,0.00,WUHU216HW,2013-05-22 11:00:00,
2013-05-22 06:05:00,49.3,46.5,29.98,NE,45,0.9,0.9,90,0.00,,,0.00,WUHU216HW,2013-05-22 11:05:00,
2013-05-22 06:30:00,49.7,47.2,29.99,ENE,68,1.1,1.1,91,0.00,,,0.00,WUHU216HW,2013-05-22 11:30:00,
2013-05-22 06:35:00,49.7,47.2,29.99,ENE,68,1.1,1.1,91,0.00,,,0.00,WUHU216HW,2013-05-22 11:35:00,
2013-05-22 07:00:00,49.9,47.3,30.00,North,0,0.9,0.9,91,0.00,,,0.00,WUHU216HW,2013-05-22 12:00:00,
2013-05-22 07:05:00,49.9,47.3,30.00,North,0,0.9,0.9,91,0.00,,,0.00,WUHU216HW,2013-05-22 12:05:00,
2013-05-22 07:10:00,49.9,47.3,30.00,North,0,0.9,0.9,91,0.00,,,0.00,WUHU216HW,2013-05-22 12:10:00,
2013-05-22 07:30:00,50.0,47.2,30.00,North,0,0.0,0.0,90,0.00,,,0.00,WUHU216HW,2013-05-22 12:30:00,
2013-05-22 07:35:00,50.0,47.2,30.00,North,0,0.0,0.0,90,0.00,,,0.00,WUHU216HW,2013-05-22 12:35:00,
2013-05-22 08:00:00,50.8,47.6,30.00,NNE,23,0.9,0.9,89,0.00,,,0.00,WUHU216HW,2013-05-22 13:00:00,
2013-05-22 08:05:00,50.8,47.6,30.00,NNE,23,0.9,0.9,89,0.00,,,0.00,WUHU216HW,2013-05-22 13:05:00,
2013-05-22 08:30:00,50.8,47.9,30.00,NNE,23,1.1,1.1,90,0.00,,,0.00,WUHU216HW,2013-05-22 13:30:00,
2013-05-22 08:35:00,50.8,47.9,30.00,NNE,23,1.1,1.1,90,0.00,,,0.00,WUHU216HW,2013-05-22 13:35:00,
2013-05-22 09:00:00,51.3,48.4,29.99,NE,45,1.1,1.1,90,0.00,,,0.00,WUHU216HW,2013-05-22 14:00:00,
2013-05-22 09:05:00,51.3,48.4,29.99,NE,45,1.1,1.1,90,0.00,,,0.00,WUHU216HW,2013-05-22 14:05:00,
2013-05-22 09:30:00,52.2,49.3,30.00,North,0,1.1,1.1,90,0.00,,,0.00,WUHU216HW,2013-05-22 14:30:00,
2013-05-22 09:35:00,52.2,49.3,30.00,North,0,1.1,1.1,90,0.00,,,0.00,WUHU216HW,2013-05-22 14:35:00,
2013-05-22 10:00:00,52.4,49.5,30.01,NNE,23,1.6,1.6,90,0.00,,,0.00,WUHU216HW,2013-05-22 15:00:00,
2013-05-22 10:05:00,52.4,49.5,30.01,NNE,23,1.6,1.6,90,0.00,,,0.00,WUHU216HW,2013-05-22 15:05:00,
2013-05-22 10:30:00,52.7,49.9,30.01,NE,45,2.2,2.2,90,0.00,,,0.00,WUHU216HW,2013-05-22 15:30:00,
2013-05-22 10:35:00,52.7,49.9,30.01,NE,45,2.2,2.2,90,0.00,,,0.00,WUHU216HW,2013-05-22 15:35:00,
2013-05-22 11:00:00,52.9,50.0,30.01,NNE,23,1.8,1.8,90,0.00,,,0.00,WUHU216HW,2013-05-22 16:00:00,
2013-05-22 11:05:00,52.9,50.0,30.01,NNE,23,1.8,1.8,90,0.00,,,0.00,WUHU216HW,2013-05-22 16:05:00,
2013-05-22 11:30:00,53.5,50.3,30.01,NNE,23,2.9,2.9,89,0.00,,,0.00,WUHU216HW,2013-05-22 16:30:00,
2013-05-22 11:35:00,53.5,50.3,30.01,NNE,23,2.9,2.9,89,0.00,,,0.00,WUHU216HW,2013-05-22 16:35:00,
2013-05-22 12:00:00,54.0,50.5,30.01,NNE,23,1.6,1.6,88,0.00,,,0.00,WUHU216HW,2013-05-22 17:00:00,
2013-05-22 12:05:00,54.0,50.5,30.01,NNE,23,1.6,1.6,88,0.00,,,0.00,WUHU216HW,2013-05-22 17:05:00,
2013-05-22 12:30:00,53.6,49.9,30.02,NE,45,1.8,1.8,87,0.00,,,0.00,WUHU216HW,2013-05-22 17:30:00,
2013-05-22 12:35:00,53.6,49.9,30.02,NE,45,1.8,1.8,87,0.00,,,0.00,WUHU216HW,2013-05-22 17:35:00,
2013-05-22 13:00:00,54.2,50.0,30.01,NE,45,3.1,3.1,86,0.00,,,0.00,WUHU216HW,2013-05-22 18:00:00,
2013-05-22 13:05:00,54.2,50.0,30.01,NE,45,3.1,3.1,86,0.00,,,0.00,WUHU216HW,2013-05-22 18:05:00,
2013-05-22 13:30:00,54.7,50.2,30.01,NNE,23,1.8,1.8,85,0.00,,,0.00,WUHU216HW,2013-05-22 18:30:00,
2013-05-22 13:35:00,54.7,50.2,30.01,NNE,23,1.8,1.8,85,0.00,,,0.00,WUHU216HW,2013-05-22 18:35:00,
2013-05-22 14:00:00,54.4,49.6,30.02,North,0,3.6,3.6,84,0.00,,,0.00,WUHU216HW,2013-05-22 19:00:00,
2013-05-22 14:05:00,54.4,49.6,30.02,North,0,3.6,3.6,84,0.00,,,0.00,WUHU216HW,2013-05-22 19:05:00,
2013-05-22 14:30:00,54.0,49.2,30.03,NE,45,4.7,4.7,84,0.00,,,0.00,WUHU216HW,2013-05-22 19:30:00,
2013-05-22 14:35:00,54.0,49.2,30.03,NE,45,4.7,4.7,84,0.00,,,0.00,WUHU216HW,2013-05-22 19:35:00,
2013-05-22 15:00:00,53.6,49.5,30.04,NE,45,2.0,2.0,86,0.00,,,0.00,WUHU216HW,2013-05-22 20:00:00,
2013-05-22 15:05:00,53.6,49.5,30.04,NE,45,2.0,2.0,86,0.00,,,0.00,WUHU216HW,2013-05-22 20:05:00,
2013-05-22 15:30:00,52.9,49.2,30.05,NNE,23,2.7,2.7,87,0.02,,,0.00,WUHU216HW,2013-05-22 20:30:00,
2013-05-22 15:35:00,52.9,49.2,30.05,NNE,23,2.7,2.7,87,0.02,,,0.00,WUHU216HW,2013-05-22 20:35:00,
2013-05-22 16:00:00,52.2,48.7,30.06,NNE,23,1.3,1.3,88,0.05,,,0.02,WUHU216HW,2013-05-22 21:00:00,
2013-05-22 16:05:00,52.2,48.4,30.06,NE,45,1.8,1.8,87,0.04,,,0.05,WUHU216HW,2013-05-22 21:05:00,
2013-05-22 16:10:00,52.2,48.4,30.06,NE,45,1.8,1.8,87,0.04,,,0.05,WUHU216HW,2013-05-22 21:10:00,
2013-05-22 16:30:00,51.1,47.4,30.06,North,0,1.6,1.6,87,0.07,,,0.05,WUHU216HW,2013-05-22 21:30:00,
2013-05-22 16:35:00,51.1,47.4,30.06,North,0,1.6,1.6,87,0.07,,,0.05,WUHU216HW,2013-05-22 21:35:00,
2013-05-22 17:00:00,50.8,47.3,30.08,NNE,23,1.8,1.8,88,0.04,,,0.09,WUHU216HW,2013-05-22 22:00:00,
2013-05-22 17:05:00,50.8,47.3,30.08,NNE,23,1.8,1.8,88,0.03,,,0.09,WUHU216HW,2013-05-22 22:05:00,
2013-05-22 17:10:00,50.8,47.3,30.08,NNE,23,1.8,1.8,88,0.03,,,0.09,WUHU216HW,2013-05-22 22:10:00,
2013-05-22 17:30:00,50.4,46.6,30.09,NNE,23,2.5,2.5,87,0.01,,,0.09,WUHU216HW,2013-05-22 22:30:00,
2013-05-22 17:35:00,50.4,46.6,30.09,NNE,23,2.5,2.5,87,0.01,,,0.09,WUHU216HW,2013-05-22 22:35:00,
2013-05-22 18:00:00,49.9,46.1,30.09,NE,45,1.6,1.6,87,0.02,,,0.10,WUHU216HW,2013-05-22 23:00:00,
2013-05-22 18:05:00,49.9,46.1,30.09,NNE,23,0.9,1.6,87,0.02,,,0.11,WUHU216HW,2013-05-22 23:05:00,
2013-05-22 18:10:00,49.9,46.1,30.09,NNE,23,0.9,0.9,87,0.02,,,0.11,WUHU216HW,2013-05-22 23:10:00,
2013-05-22 18:30:00,49.5,45.7,30.10,NE,45,2.0,2.0,87,0.02,,,0.11,WUHU216HW,2013-05-22 23:30:00,
2013-05-22 18:35:00,49.5,45.7,30.10,NE,45,2.0,2.0,87,0.02,,,0.11,WUHU216HW,2013-05-22 23:35:00,
2013-05-22 19:00:00,49.5,45.7,30.11,ENE,68,4.9,4.9,87,0.01,,,0.12,WUHU216HW,2013-05-23 00:00:00,
2013-05-22 19:05:00,49.5,45.7,30.11,NNE,23,4.0,4.9,87,0.00,,,0.12,WUHU216HW,2013-05-23 00:05:00,
2013-05-22 19:10:00,49.5,45.7,30.11,NNE,23,4.0,4.0,87,0.00,,,0.12,WUHU216HW,2013-05-23 00:10:00,
2013-05-22 19:30:00,49.5,46.1,30.13,North,0,2.9,2.9,88,0.00,,,0.12,WUHU216HW,2013-05-23 00:30:00,
2013-05-22 19:35:00,49.5,46.1,30.13,North,0,2.9,2.9,88,0.00,,,0.12,WUHU216HW,2013-05-23 00:35:00,
2013-05-22 20:00:00,49.3,46.5,30.13,NNE,23,1.8,1.8,90,0.01,,,0.12,WUHU216HW,2013-05-23 01:00:00,
2013-05-22 20:05:00,49.3,46.5,30.13,NNE,23,1.8,1.8,90,0.01,,,0.13,WUHU216HW,2013-05-23 01:05:00,
2013-05-22 20:10:00,49.3,46.5,30.13,NNE,23,1.8,1.8,90,0.01,,,0.13,WUHU216HW,2013-05-23 01:10:00,
2013-05-22 20:30:00,49.5,46.7,30.13,NNW,338,4.7,4.7,90,0.01,,,0.13,WUHU216HW,2013-05-23 01:30:00,
2013-05-22 20:35:00,49.5,46.7,30.13,NNW,338,4.7,4.7,90,0.01,,,0.13,WUHU216HW,2013-05-23 01:35:00,
2013-05-22 21:00:00,50.0,46.9,30.14,NNE,23,2.0,2.0,89,0.00,,,0.13,WUHU216HW,2013-05-23 02:00:00,
2013-05-22 21:05:00,50.0,46.9,30.14,NNE,23,2.0,2.0,89,0.00,,,0.13,WUHU216HW,2013-05-23 02:05:00,
2013-05-22 21:30:00,50.0,46.5,30.16,NNE,23,3.4,3.4,88,0.00,,,0.13,WUHU216HW,2013-05-23 02:30:00,
2013-05-22 21:35:00,50.0,46.5,30.16,NNE,23,3.4,3.4,88,0.00,,,0.13,WUHU216HW,2013-05-23 02:35:00,
2013-05-22 22:00:00,50.0,45.9,30.17,NNE,23,4.7,4.7,86,0.00,,,0.13,WUHU216HW,2013-05-23 03:00:00,
2013-05-22 22:05:00,50.0,45.9,30.17,NNE,23,4.7,4.7,86,0.00,,,0.13,WUHU216HW,2013-05-23 03:05:00,
2013-05-22 22:30:00,49.3,45.3,30.18,NNE,23,2.5,2.5,86,0.00,,,0.13,WUHU216HW,2013-05-23 03:30:00,
2013-05-22 22:35:00,49.3,45.3,30.18,NNE,23,2.5,2.5,86,0.00,,,0.13,WUHU216HW,2013-05-23 03:35:00,
2013-05-22 23:00:00,49.0,44.0,30.19,NNE,23,1.6,1.6,83,0.00,,,0.13,WUHU216HW,2013-05-23 04:00:00,
2013-05-22 23:01:00,49.0,44.0,30.19,NNE,23,1.6,1.6,83,0.00,,,0.13,WUHU216HW,2013-05-23 04:01:00,
2013-05-22 23:02:00,49.0,44.0,30.19,NNE,23,1.6,1.6,83,0.00,,,0.13,WUHU216HW,2013-05-23 04:02:00,
2013-05-22 23:07:00,49.0,44.0,30.19,NNE,23,1.6,1.6,83,0.00,,,0.13,WUHU216HW,2013-05-23 04:07:00,
2013-05-22 23:30:00,48.8,44.5,30.20,NNW,338,1.8,1.8,85,0.00,,,0.13,WUHU216HW,2013-05-23 04:30:00,
2013-05-22 23:35:00,48.8,44.5,30.20,NNW,338,1.8,1.8,85,0.00,,,0.13,WUHU216HW,2013-05-23 04:35:00,